Promitheas — SYIJ — position and weather

sailwx.info

Track history (hours):
 
Tides and Currents Weather Stations Pressure Air Temp Water Temp Dewpoint Dewpoint Depression Visibility Wind Speed Wind Dir Waves Ship Positions

Promitheas

Last reported at 2015-Apr-18 07:33 UTC. Time now 2015-Apr-19 21:03 UTC.
Position N 49°53' W 003°15'.

Length 249 m; draft 14.2 m.

Type: Ship (hazmat cat A). MMSI: 240547000.

Date/timePositionNaut miles runAvg speedWind from/ knotsBaromVisibWave heightAir tempDewpointWater temp
2015-Apr-18 07:33N 49°53' W 003°15'14212.9
2015-Apr-17 20:33N 50°33' E 000°18'1110.5
2015-Apr-17 19:33N 50°36' E 000°34'1211.7
2015-Apr-17 18:33N 50°42' E 000°49'2914.5
2015-Apr-17 16:34N 50°60' E 001°25'1414.0
2015-Apr-17 15:33N 51°10' E 001°41'1212.4
2015-Apr-17 14:33N 51°20' E 001°52'1111.1
2015-Apr-17 13:33N 51°29' E 002°02'1110.6
2015-Apr-17 12:33N 51°37' E 002°14'2510.7
2015-Apr-17 10:14N 51°57' E 002°37'13712.5
2015-Apr-16 23:18N 54°01' E 004°17'31510.9
2015-Apr-15 18:26N 57°49' E 010°44'8 9.6
2015-Apr-15 17:33N 57°44' E 010°55'1212.1
2015-Apr-15 16:33N 57°35' E 011°12'1211.6
2015-Apr-15 15:33N 57°27' E 011°27'1212.0
2015-Apr-15 14:33N 57°16' E 011°35'1211.8
2015-Apr-15 13:32N 57°04' E 011°41'1211.8
2015-Apr-15 12:33N 56°53' E 011°48'1111.4
2015-Apr-15 11:33N 56°42' E 011°51'12910.4
2015-Apr-14 23:11N 54°36' E 010°59'711.7
2015-Apr-14 22:33N 54°35' E 011°12'1211.7
2015-Apr-14 21:33N 54°30' E 011°30'1211.9
2015-Apr-14 20:33N 54°27' E 011°50'1211.6
2015-Apr-14 19:33N 54°27' E 012°10'1010.5
2015-Apr-14 18:34N 54°36' E 012°17'9 9.1
2015-Apr-14 17:33N 54°41' E 012°30'9 8.9
2015-Apr-14 16:33N 54°46' E 012°43'1111.4
2015-Apr-14 15:33N 54°51' E 013°01'1211.6
2015-Apr-14 14:33N 54°55' E 013°20'1111.3
2015-Apr-14 13:33N 54°59' E 013°39'1311.4
2015-Apr-14 12:23N 55°03' E 014°01'911.3
2015-Apr-14 11:33N 55°10' E 014°12'2511.6
2015-Apr-14 09:23N 55°28' E 014°43'37311.4
2015-Apr-13 00:33N 59°37' E 023°19'1211.8
2015-Apr-12 23:33N 59°41' E 023°42'1212.1
2015-Apr-12 22:31N 59°44' E 024°06'1311.5
2015-Apr-12 21:21N 59°48' E 024°32'911.2
2015-Apr-12 20:31N 59°50' E 024°50'4611.3
2015-Apr-12 16:25N 59°59' E 026°20'1011.8
2015-Apr-12 15:33N 60°01' E 026°40'1211.8
2015-Apr-12 14:33N 59°60' E 027°04'  
2015-Apr-08 08:09N 59°58' E 027°05'  
Track history (hours):
 
Tides and Currents Weather Stations Pressure Air Temp Water Temp Dewpoint Dewpoint Depression Visibility Wind Speed Wind Dir Waves Ship Positions

Promitheas

Last reported at 2015-Apr-18 07:33 UTC. Time now 2015-Apr-19 21:03 UTC.
Position N 49°53' W 003°15'.

Length 249 m; draft 14.2 m.

Type: Ship (hazmat cat A). MMSI: 240547000.

Date/timePositionNaut miles runAvg speedWind from/ knotsBaromVisibWave heightAir tempDewpointWater temp
2015-Apr-18 07:33N 49°53' W 003°15'14212.9
2015-Apr-17 20:33N 50°33' E 000°18'1110.5
2015-Apr-17 19:33N 50°36' E 000°34'1211.7
2015-Apr-17 18:33N 50°42' E 000°49'2914.5
2015-Apr-17 16:34N 50°60' E 001°25'1414.0
2015-Apr-17 15:33N 51°10' E 001°41'1212.4
2015-Apr-17 14:33N 51°20' E 001°52'1111.1
2015-Apr-17 13:33N 51°29' E 002°02'1110.6
2015-Apr-17 12:33N 51°37' E 002°14'2510.7
2015-Apr-17 10:14N 51°57' E 002°37'13712.5
2015-Apr-16 23:18N 54°01' E 004°17'31510.9
2015-Apr-15 18:26N 57°49' E 010°44'8 9.6
2015-Apr-15 17:33N 57°44' E 010°55'1212.1
2015-Apr-15 16:33N 57°35' E 011°12'1211.6
2015-Apr-15 15:33N 57°27' E 011°27'1212.0
2015-Apr-15 14:33N 57°16' E 011°35'1211.8
2015-Apr-15 13:32N 57°04' E 011°41'1211.8
2015-Apr-15 12:33N 56°53' E 011°48'1111.4
2015-Apr-15 11:33N 56°42' E 011°51'12910.4
2015-Apr-14 23:11N 54°36' E 010°59'711.7
2015-Apr-14 22:33N 54°35' E 011°12'1211.7
2015-Apr-14 21:33N 54°30' E 011°30'1211.9
2015-Apr-14 20:33N 54°27' E 011°50'1211.6
2015-Apr-14 19:33N 54°27' E 012°10'1010.5
2015-Apr-14 18:34N 54°36' E 012°17'9 9.1
2015-Apr-14 17:33N 54°41' E 012°30'9 8.9
2015-Apr-14 16:33N 54°46' E 012°43'1111.4
2015-Apr-14 15:33N 54°51' E 013°01'1211.6
2015-Apr-14 14:33N 54°55' E 013°20'1111.3
2015-Apr-14 13:33N 54°59' E 013°39'1311.4
2015-Apr-14 12:23N 55°03' E 014°01'911.3
2015-Apr-14 11:33N 55°10' E 014°12'2511.6
2015-Apr-14 09:23N 55°28' E 014°43'37311.4
2015-Apr-13 00:33N 59°37' E 023°19'1211.8
2015-Apr-12 23:33N 59°41' E 023°42'1212.1
2015-Apr-12 22:31N 59°44' E 024°06'1311.5
2015-Apr-12 21:21N 59°48' E 024°32'911.2
2015-Apr-12 20:31N 59°50' E 024°50'4611.3
2015-Apr-12 16:25N 59°59' E 026°20'1011.8
2015-Apr-12 15:33N 60°01' E 026°40'1211.8
2015-Apr-12 14:33N 59°60' E 027°04'  
2015-Apr-08 08:09N 59°58' E 027°05'  

Dump ship's entire track history